sensor_id;sensor_type;location;lat;lon;timestamp;pressure;altitude;pressure_sealevel;temperature;humidity
56514;BME280;62152;52.078;8.414;2023-02-05T00:03:01;102211.28;;;16.76;57.93
56514;BME280;62152;52.078;8.414;2023-02-05T00:07:03;102206.59;;;16.77;57.87
56514;BME280;62152;52.078;8.414;2023-02-05T00:11:05;102203.88;;;16.77;58.21
56514;BME280;62152;52.078;8.414;2023-02-05T00:15:06;102198.38;;;16.77;57.79
56514;BME280;62152;52.078;8.414;2023-02-05T00:19:09;102186.94;;;16.75;58.21
56514;BME280;62152;52.078;8.414;2023-02-05T00:23:10;102185.81;;;16.76;57.96
56514;BME280;62152;52.078;8.414;2023-02-05T00:27:11;102182.25;;;16.75;58.26
56514;BME280;62152;52.078;8.414;2023-02-05T00:31:14;102169.66;;;16.74;58.07
56514;BME280;62152;52.078;8.414;2023-02-05T00:35:17;102159.00;;;16.73;57.87
56514;BME280;62152;52.078;8.414;2023-02-05T00:39:19;102154.66;;;16.72;58.27
56514;BME280;62152;52.078;8.414;2023-02-05T00:43:21;102147.56;;;16.71;57.87
56514;BME280;62152;52.078;8.414;2023-02-05T00:47:22;102138.22;;;16.72;57.97
56514;BME280;62152;52.078;8.414;2023-02-05T00:51:24;102132.72;;;16.72;57.85
56514;BME280;62152;52.078;8.414;2023-02-05T00:55:25;102130.50;;;16.74;57.86
56514;BME280;62152;52.078;8.414;2023-02-05T00:59:26;102116.28;;;16.72;58.03
56514;BME280;62152;52.078;8.414;2023-02-05T01:03:27;102113.25;;;16.73;58.17
56514;BME280;62152;52.078;8.414;2023-02-05T01:07:30;102104.53;;;16.71;58.12
56514;BME280;62152;52.078;8.414;2023-02-05T01:11:31;102104.53;;;16.71;58.21
56514;BME280;62152;52.078;8.414;2023-02-05T01:15:32;102109.19;;;16.71;57.72
56514;BME280;62152;52.078;8.414;2023-02-05T01:19:33;102093.88;;;16.70;58.25
56514;BME280;62152;52.078;8.414;2023-02-05T01:23:35;102074.69;;;16.70;57.98
56514;BME280;62152;52.078;8.414;2023-02-05T01:27:36;102084.81;;;16.69;58.18
56514;BME280;62152;52.078;8.414;2023-02-05T01:31:37;102072.78;;;16.70;57.84
56514;BME280;62152;52.078;8.414;2023-02-05T01:35:39;102068.38;;;16.69;58.12
56514;BME280;62152;52.078;8.414;2023-02-05T01:39:41;102071.97;;;16.70;58.15
56514;BME280;62152;52.078;8.414;2023-02-05T01:43:42;102075.81;;;16.68;57.92
56514;BME280;62152;52.078;8.414;2023-02-05T01:47:43;102089.50;;;16.68;58.29
56514;BME280;62152;52.078;8.414;2023-02-05T01:51:46;102083.22;;;16.68;57.99
56514;BME280;62152;52.078;8.414;2023-02-05T01:55:54;102087.84;;;16.67;57.73
56514;BME280;62152;52.078;8.414;2023-02-05T01:59:57;102067.59;;;16.68;57.79
56514;BME280;62152;52.078;8.414;2023-02-05T02:04:01;102064.31;;;16.66;58.22
56514;BME280;62152;52.078;8.414;2023-02-05T02:08:03;102049.00;;;16.65;57.78
56514;BME280;62152;52.078;8.414;2023-02-05T02:12:06;102050.94;;;16.65;57.91
56514;BME280;62152;52.078;8.414;2023-02-05T02:16:08;102049.00;;;16.65;58.10
56514;BME280;62152;52.078;8.414;2023-02-05T02:20:12;102043.53;;;16.65;58.01
56514;BME280;62152;52.078;8.414;2023-02-05T02:29:03;102047.88;;;16.66;58.10
56514;BME280;62152;52.078;8.414;2023-02-05T02:33:08;102056.09;;;16.66;57.84
56514;BME280;62152;52.078;8.414;2023-02-05T02:37:23;102059.97;;;16.65;58.21
56514;BME280;62152;52.078;8.414;2023-02-05T02:41:34;102062.69;;;16.65;57.84
56514;BME280;62152;52.078;8.414;2023-02-05T02:45:46;102057.22;;;16.65;57.84
56514;BME280;62152;52.078;8.414;2023-02-05T02:49:56;102042.72;;;16.65;58.06
56514;BME280;62152;52.078;8.414;2023-02-05T02:54:06;102039.50;;;16.63;58.03
56514;BME280;62152;52.078;8.414;2023-02-05T02:58:15;102029.34;;;16.63;57.67
56514;BME280;62152;52.078;8.414;2023-02-05T03:02:21;102027.41;;;16.64;58.03
56514;BME280;62152;52.078;8.414;2023-02-05T03:06:26;102041.91;;;16.64;58.04
56514;BME280;62152;52.078;8.414;2023-02-05T03:10:36;102027.72;;;16.62;57.70
56514;BME280;62152;52.078;8.414;2023-02-05T03:14:41;102024.97;;;16.62;58.01
56514;BME280;62152;52.078;8.414;2023-02-05T03:18:44;102021.13;;;16.63;57.91
56514;BME280;62152;52.078;8.414;2023-02-05T03:22:47;102005.00;;;16.62;57.94
56514;BME280;62152;52.078;8.414;2023-02-05T03:26:48;102001.47;;;16.61;57.63
56514;BME280;62152;52.078;8.414;2023-02-05T03:30:59;101992.09;;;16.62;57.88
56514;BME280;62152;52.078;8.414;2023-02-05T03:35:21;101992.91;;;16.63;58.09
56514;BME280;62152;52.078;8.414;2023-02-05T03:39:44;101995.97;;;16.61;57.81
56514;BME280;62152;52.078;8.414;2023-02-05T03:44:06;101994.84;;;16.62;57.69
56514;BME280;62152;52.078;8.414;2023-02-05T03:48:24;101997.59;;;16.62;58.16
56514;BME280;62152;52.078;8.414;2023-02-05T03:52:42;102005.00;;;16.62;57.58
56514;BME280;62152;52.078;8.414;2023-02-05T03:56:56;102024.97;;;16.62;57.71
56514;BME280;62152;52.078;8.414;2023-02-05T04:01:09;102020.63;;;16.61;57.73
56514;BME280;62152;52.078;8.414;2023-02-05T04:05:12;102004.19;;;16.61;57.68
56514;BME280;62152;52.078;8.414;2023-02-05T04:09:17;101999.81;;;16.60;57.66
56514;BME280;62152;52.078;8.414;2023-02-05T04:13:18;101992.72;;;16.59;57.99
56514;BME280;62152;52.078;8.414;2023-02-05T04:17:19;101998.72;;;16.61;57.73
56514;BME280;62152;52.078;8.414;2023-02-05T04:21:20;102004.19;;;16.61;57.73
56514;BME280;62152;52.078;8.414;2023-02-05T04:25:23;101993.22;;;16.61;57.55
56514;BME280;62152;52.078;8.414;2023-02-05T04:29:27;101984.50;;;16.59;57.91
56514;BME280;62152;52.078;8.414;2023-02-05T04:33:29;101979.03;;;16.59;57.97
56514;BME280;62152;52.078;8.414;2023-02-05T04:37:30;101975.16;;;16.60;57.87
56514;BME280;62152;52.078;8.414;2023-02-05T04:41:33;101971.59;;;16.60;57.59
56514;BME280;62152;52.078;8.414;2023-02-05T04:45:34;101974.34;;;16.60;57.95
56514;BME280;62152;52.078;8.414;2023-02-05T04:49:35;101980.94;;;16.59;57.84
56514;BME280;62152;52.078;8.414;2023-02-05T04:53:37;101985.31;;;16.60;57.69
56514;BME280;62152;52.078;8.414;2023-02-05T04:57:39;101976.28;;;16.59;57.76
56514;BME280;62152;52.078;8.414;2023-02-05T05:01:40;101974.66;;;16.58;58.09
56514;BME280;62152;52.078;8.414;2023-02-05T05:05:41;101980.94;;;16.59;57.75
56514;BME280;62152;52.078;8.414;2023-02-05T05:09:42;101968.06;;;16.59;57.74
56514;BME280;62152;52.078;8.414;2023-02-05T05:13:45;101958.22;;;16.58;57.90
56514;BME280;62152;52.078;8.414;2023-02-05T05:17:46;101940.19;;;16.57;57.56
56514;BME280;62152;52.078;8.414;2023-02-05T05:21:47;101952.75;;;16.58;58.09
56514;BME280;62152;52.078;8.414;2023-02-05T05:25:48;101944.84;;;16.57;57.60
56514;BME280;62152;52.078;8.414;2023-02-05T05:29:51;101942.91;;;16.57;57.98
56514;BME280;62152;52.078;8.414;2023-02-05T05:33:52;101936.63;;;16.57;58.01
56514;BME280;62152;52.078;8.414;2023-02-05T05:37:55;101944.03;;;16.56;57.85
56514;BME280;62152;52.078;8.414;2023-02-05T05:41:57;101953.56;;;16.59;57.91
56514;BME280;62152;52.078;8.414;2023-02-05T05:45:59;101945.66;;;16.57;57.90
56514;BME280;62152;52.078;8.414;2023-02-05T05:50:00;101953.56;;;16.59;57.78
56514;BME280;62152;52.078;8.414;2023-02-05T05:54:01;101942.91;;;16.57;57.90
56514;BME280;62152;52.078;8.414;2023-02-05T05:58:02;101936.63;;;16.57;57.58
56514;BME280;62152;52.078;8.414;2023-02-05T06:02:04;101931.16;;;16.57;57.72
56514;BME280;62152;52.078;8.414;2023-02-05T06:06:07;101921.31;;;16.56;57.87
56514;BME280;62152;52.078;8.414;2023-02-05T06:10:09;101919.41;;;16.56;57.93
56514;BME280;62152;52.078;8.414;2023-02-05T06:14:10;101915.84;;;16.56;57.99
56514;BME280;62152;52.078;8.414;2023-02-05T06:18:12;101910.38;;;16.56;57.98
56514;BME280;62152;52.078;8.414;2023-02-05T06:22:13;101911.19;;;16.56;57.82
56514;BME280;62152;52.078;8.414;2023-02-05T06:26:14;101900.22;;;16.56;57.69
56514;BME280;62152;52.078;8.414;2023-02-05T06:30:15;101899.41;;;16.56;57.85
56514;BME280;62152;52.078;8.414;2023-02-05T06:34:17;101904.91;;;16.56;57.68
56514;BME280;62152;52.078;8.414;2023-02-05T06:38:18;101899.09;;;16.57;58.05
56514;BME280;62152;52.078;8.414;2023-02-05T06:42:19;101897.47;;;16.56;57.74
56514;BME280;62152;52.078;8.414;2023-02-05T06:46:20;101877.81;;;16.54;57.89
56514;BME280;62152;52.078;8.414;2023-02-05T06:50:22;101882.16;;;16.55;57.58
56514;BME280;62152;52.078;8.414;2023-02-05T06:54:24;101881.38;;;16.55;57.44
56514;BME280;62152;52.078;8.414;2023-02-05T06:58:25;101881.38;;;16.55;57.69
56514;BME280;62152;52.078;8.414;2023-02-05T07:02:26;101881.38;;;16.55;57.41
56514;BME280;62152;52.078;8.414;2023-02-05T07:06:28;101887.13;;;16.53;57.48
56514;BME280;62152;52.078;8.414;2023-02-05T07:10:29;101880.03;;;16.52;57.29
56514;BME280;62152;52.078;8.414;2023-02-05T07:14:30;101873.44;;;16.53;57.79
56514;BME280;62152;52.078;8.414;2023-02-05T07:18:31;101879.72;;;16.54;57.38
56514;BME280;62152;52.078;8.414;2023-02-05T07:22:34;101877.31;;;16.52;57.68
56514;BME280;62152;52.078;8.414;2023-02-05T07:26:35;101881.66;;;16.53;57.75
56514;BME280;62152;52.078;8.414;2023-02-05T07:30:36;101891.00;;;16.52;57.74
56514;BME280;62152;52.078;8.414;2023-02-05T07:34:37;101902.75;;;16.53;57.40
56514;BME280;62152;52.078;8.414;2023-02-05T07:38:39;101903.09;;;16.51;57.75
56514;BME280;62152;52.078;8.414;2023-02-05T07:42:40;101888.25;;;16.52;57.42
56514;BME280;62152;52.078;8.414;2023-02-05T07:46:42;101885.03;;;16.50;57.25
56514;BME280;62152;52.078;8.414;2023-02-05T07:50:43;101882.31;;;16.50;57.29
56514;BME280;62152;52.078;8.414;2023-02-05T07:54:45;101890.84;;;16.49;57.42
56514;BME280;62152;52.078;8.414;2023-02-05T07:58:47;101896.00;;;16.50;57.27
56514;BME280;62152;52.078;8.414;2023-02-05T08:02:48;101885.03;;;16.50;57.37
56514;BME280;62152;52.078;8.414;2023-02-05T08:06:48;101892.44;;;16.50;57.34
56514;BME280;62152;52.078;8.414;2023-02-05T08:10:56;101893.25;;;16.50;57.64
56514;BME280;62152;52.078;8.414;2023-02-05T08:14:58;101887.59;;;16.47;56.82
56514;BME280;62152;52.078;8.414;2023-02-05T08:18:59;101880.91;;;16.30;56.20
56514;BME280;62152;52.078;8.414;2023-02-05T08:22:59;101888.69;;;16.14;55.68
56514;BME280;62152;52.078;8.414;2023-02-05T08:27:02;101888.63;;;16.28;55.90
56514;BME280;62152;52.078;8.414;2023-02-05T08:31:08;101878.84;;;16.36;55.50
56514;BME280;62152;52.078;8.414;2023-02-05T08:35:10;101888.34;;;16.38;55.33
56514;BME280;62152;52.078;8.414;2023-02-05T08:39:11;101885.81;;;16.42;55.64
56514;BME280;62152;52.078;8.414;2023-02-05T08:43:13;101883.88;;;16.42;55.04
56514;BME280;62152;52.078;8.414;2023-02-05T08:47:18;101890.16;;;16.43;55.48
56514;BME280;62152;52.078;8.414;2023-02-05T08:51:19;101889.03;;;16.44;55.62
56514;BME280;62152;52.078;8.414;2023-02-05T08:55:21;101887.41;;;16.43;55.88
56514;BME280;62152;52.078;8.414;2023-02-05T08:59:23;101874.84;;;16.42;55.54
56514;BME280;62152;52.078;8.414;2023-02-05T09:03:24;101883.22;;;16.46;56.18
56514;BME280;62152;52.078;8.414;2023-02-05T09:07:25;101878.91;;;16.53;55.88
56514;BME280;62152;52.078;8.414;2023-02-05T09:11:25;101881.88;;;16.65;56.38
56514;BME280;62152;52.078;8.414;2023-02-05T09:15:28;101876.97;;;16.54;56.11
56514;BME280;62152;52.078;8.414;2023-02-05T09:19:32;101878.44;;;16.51;56.65
56514;BME280;62152;52.078;8.414;2023-02-05T09:23:34;101883.09;;;16.51;56.50
56514;BME280;62152;52.078;8.414;2023-02-05T09:27:35;101872.81;;;16.56;56.58
56514;BME280;62152;52.078;8.414;2023-02-05T09:31:39;101868.81;;;16.93;56.13
56514;BME280;62152;52.078;8.414;2023-02-05T09:35:40;101858.38;;;17.04;57.17
56514;BME280;62152;52.078;8.414;2023-02-05T09:39:41;101869.34;;;17.04;56.57
56514;BME280;62152;52.078;8.414;2023-02-05T09:43:49;101871.75;;;17.06;56.99
56514;BME280;62152;52.078;8.414;2023-02-05T09:48:04;101864.78;;;17.00;56.01
56514;BME280;62152;52.078;8.414;2023-02-05T09:52:29;101867.88;;;16.98;56.41
56514;BME280;62152;52.078;8.414;2023-02-05T09:56:36;101871.59;;;17.02;56.43
56514;BME280;62152;52.078;8.414;2023-02-05T10:00:45;101874.16;;;17.07;55.80
56514;BME280;62152;52.078;8.414;2023-02-05T10:04:51;101873.03;;;17.08;55.90
56514;BME280;62152;52.078;8.414;2023-02-05T10:09:00;101875.47;;;17.10;55.85
56514;BME280;62152;52.078;8.414;2023-02-05T10:13:25;101876.97;;;17.16;55.79
56514;BME280;62152;52.078;8.414;2023-02-05T10:17:43;101872.91;;;17.22;55.27
56514;BME280;62152;52.078;8.414;2023-02-05T10:22:07;101872.63;;;17.23;55.30
56514;BME280;62152;52.078;8.414;2023-02-05T10:26:16;101868.25;;;17.22;56.02
56514;BME280;62152;52.078;8.414;2023-02-05T10:30:23;101881.44;;;17.12;56.90
56514;BME280;62152;52.078;8.414;2023-02-05T10:34:45;101874.50;;;17.06;56.45
56514;BME280;62152;52.078;8.414;2023-02-05T10:38:55;101872.56;;;17.15;55.00
56514;BME280;62152;52.078;8.414;2023-02-05T10:43:04;101876.97;;;17.16;55.07
56514;BME280;62152;52.078;8.414;2023-02-05T10:47:20;101884.19;;;17.20;54.80
56514;BME280;62152;52.078;8.414;2023-02-05T10:51:39;101885.19;;;17.16;54.76
56514;BME280;62152;52.078;8.414;2023-02-05T10:55:42;101885.34;;;17.19;54.24
56514;BME280;62152;52.078;8.414;2023-02-05T10:59:50;101892.63;;;17.24;54.05
56514;BME280;62152;52.078;8.414;2023-02-05T11:03:58;101900.03;;;17.32;54.11
56514;BME280;62152;52.078;8.414;2023-02-05T11:08:03;101910.38;;;17.35;54.67
56514;BME280;62152;52.078;8.414;2023-02-05T11:12:18;101930.69;;;17.34;54.27
56514;BME280;62152;52.078;8.414;2023-02-05T11:16:36;101927.47;;;17.32;54.66
56514;BME280;62152;52.078;8.414;2023-02-05T11:20:54;101929.88;;;17.34;54.83
56514;BME280;62152;52.078;8.414;2023-02-05T11:25:06;101933.94;;;17.36;54.35
56514;BME280;62152;52.078;8.414;2023-02-05T11:29:22;101935.84;;;17.36;54.55
56514;BME280;62152;52.078;8.414;2023-02-05T11:33:27;101947.16;;;17.34;54.82
56514;BME280;62152;52.078;8.414;2023-02-05T11:37:29;101946.81;;;17.36;54.73
56514;BME280;62152;52.078;8.414;2023-02-05T11:41:32;101951.69;;;17.39;55.00
56514;BME280;62152;52.078;8.414;2023-02-05T11:45:38;101949.28;;;17.37;55.17
56514;BME280;62152;52.078;8.414;2023-02-05T11:49:40;101956.03;;;17.40;55.66
56514;BME280;62152;52.078;8.414;2023-02-05T11:53:51;101965.75;;;17.46;55.57
56514;BME280;62152;52.078;8.414;2023-02-05T11:58:00;101961.19;;;17.33;55.68
56514;BME280;62152;52.078;8.414;2023-02-05T12:02:27;101974.69;;;17.20;56.25
56514;BME280;62152;52.078;8.414;2023-02-05T12:06:37;101980.63;;;17.14;56.53
56514;BME280;62152;52.078;8.414;2023-02-05T12:10:52;101980.47;;;17.10;56.29
56514;BME280;62152;52.078;8.414;2023-02-05T12:15:14;101981.88;;;17.08;56.42
56514;BME280;62152;52.078;8.414;2023-02-05T12:19:31;101985.31;;;17.13;56.49
56514;BME280;62152;52.078;8.414;2023-02-05T12:23:58;101991.25;;;17.07;56.29
56514;BME280;62152;52.078;8.414;2023-02-05T12:28:36;101993.31;;;17.01;56.83
56514;BME280;62152;52.078;8.414;2023-02-05T12:32:55;101992.03;;;16.99;57.03
56514;BME280;62152;52.078;8.414;2023-02-05T12:37:22;101986.06;;;16.97;56.76
56514;BME280;62152;52.078;8.414;2023-02-05T12:41:41;101977.63;;;16.93;56.65
56514;BME280;62152;52.078;8.414;2023-02-05T12:45:54;101969.41;;;16.93;56.67
56514;BME280;62152;52.078;8.414;2023-02-05T12:50:15;101974.09;;;16.92;56.36
56514;BME280;62152;52.078;8.414;2023-02-05T12:54:42;101979.88;;;16.91;56.46
56514;BME280;62152;52.078;8.414;2023-02-05T12:58:59;101979.09;;;16.90;56.63
56514;BME280;62152;52.078;8.414;2023-02-05T13:03:09;101991.19;;;16.89;56.43
56514;BME280;62152;52.078;8.414;2023-02-05T13:07:27;101987.63;;;16.89;56.37
56514;BME280;62152;52.078;8.414;2023-02-05T13:11:39;101995.34;;;16.87;56.45
56514;BME280;62152;52.078;8.414;2023-02-05T13:15:50;101998.06;;;16.87;56.35
56514;BME280;62152;52.078;8.414;2023-02-05T13:20:02;101994.53;;;16.86;56.30
56514;BME280;62152;52.078;8.414;2023-02-05T13:24:24;101994.84;;;16.85;56.76
56514;BME280;62152;52.078;8.414;2023-02-05T13:28:38;102016.78;;;16.85;56.10
56514;BME280;62152;52.078;8.414;2023-02-05T13:32:47;102025.00;;;16.85;56.32
56514;BME280;62152;52.078;8.414;2023-02-05T13:37:08;102029.66;;;16.84;56.67
56514;BME280;62152;52.078;8.414;2023-02-05T13:41:58;102029.19;;;16.82;56.45
56514;BME280;62152;52.078;8.414;2023-02-05T13:46:31;102043.97;;;16.81;56.35
56514;BME280;62152;52.078;8.414;2023-02-05T13:51:15;102060.41;;;16.81;56.55
56514;BME280;62152;52.078;8.414;2023-02-05T13:56:01;102065.91;;;16.81;56.57
56514;BME280;62152;52.078;8.414;2023-02-05T14:00:11;102068.97;;;16.80;56.15
56514;BME280;62152;52.078;8.414;2023-02-05T14:04:22;102065.72;;;16.78;56.59
56514;BME280;62152;52.078;8.414;2023-02-05T14:08:28;102063.00;;;16.78;56.21
56514;BME280;62152;52.078;8.414;2023-02-05T14:12:36;102064.94;;;16.77;56.78
56514;BME280;62152;52.078;8.414;2023-02-05T14:16:38;102072.34;;;16.77;56.28
56514;BME280;62152;52.078;8.414;2023-02-05T14:20:41;102064.44;;;16.75;56.15
56514;BME280;62152;52.078;8.414;2023-02-05T14:24:45;102080.56;;;16.77;56.11
56514;BME280;62152;52.078;8.414;2023-02-05T14:28:50;102078.13;;;16.75;56.33
56514;BME280;62152;52.078;8.414;2023-02-05T14:32:56;102080.88;;;16.75;56.36
56514;BME280;62152;52.078;8.414;2023-02-05T14:37:00;102087.16;;;16.76;56.12
56514;BME280;62152;52.078;8.414;2023-02-05T14:41:03;102091.03;;;16.75;56.23
56514;BME280;62152;52.078;8.414;2023-02-05T14:45:15;102092.13;;;16.74;56.29
56514;BME280;62152;52.078;8.414;2023-02-05T14:49:22;102112.56;;;17.12;58.88
56514;BME280;62152;52.078;8.414;2023-02-05T14:53:28;102104.09;;;17.22;59.34
56514;BME280;62152;52.078;8.414;2023-02-05T14:57:39;102089.72;;;17.26;58.64
56514;BME280;62152;52.078;8.414;2023-02-05T15:01:47;102091.34;;;17.27;59.05
56514;BME280;62152;52.078;8.414;2023-02-05T15:05:51;102098.13;;;17.29;58.95
56514;BME280;62152;52.078;8.414;2023-02-05T15:10:00;102102.19;;;17.32;59.33
56514;BME280;62152;52.078;8.414;2023-02-05T15:18:43;102113.53;;;17.39;59.07
56514;BME280;62152;52.078;8.414;2023-02-05T15:22:52;102122.56;;;17.39;58.55
56514;BME280;62152;52.078;8.414;2023-02-05T15:27:05;102131.44;;;17.36;58.88
56514;BME280;62152;52.078;8.414;2023-02-05T15:31:31;102136.75;;;17.41;58.55
56514;BME280;62152;52.078;8.414;2023-02-05T15:35:42;102144.19;;;17.41;58.88
56514;BME280;62152;52.078;8.414;2023-02-05T15:39:50;102154.53;;;17.44;58.78
56514;BME280;62152;52.078;8.414;2023-02-05T15:44:02;102146.84;;;17.23;58.93
56514;BME280;62152;52.078;8.414;2023-02-05T15:48:10;102155.50;;;17.17;59.28
56514;BME280;62152;52.078;8.414;2023-02-05T15:52:18;102159.81;;;17.09;59.35
56514;BME280;62152;52.078;8.414;2023-02-05T15:56:24;102176.88;;;17.06;58.49
56514;BME280;62152;52.078;8.414;2023-02-05T16:00:32;102186.84;;;17.02;59.07
56514;BME280;62152;52.078;8.414;2023-02-05T16:04:38;102192.94;;;16.99;58.89
56514;BME280;62152;52.078;8.414;2023-02-05T16:08:45;102203.41;;;16.97;58.56
56514;BME280;62152;52.078;8.414;2023-02-05T16:12:56;102206.97;;;16.98;58.75
56514;BME280;62152;52.078;8.414;2023-02-05T16:17:07;102213.88;;;16.95;59.07
56514;BME280;62152;52.078;8.414;2023-02-05T16:21:22;102213.88;;;16.95;58.79
56514;BME280;62152;52.078;8.414;2023-02-05T16:25:33;102216.09;;;16.93;58.83
56514;BME280;62152;52.078;8.414;2023-02-05T16:29:46;102226.56;;;16.91;58.69
56514;BME280;62152;52.078;8.414;2023-02-05T16:33:57;102232.06;;;16.91;58.67
56514;BME280;62152;52.078;8.414;2023-02-05T16:38:02;102239.47;;;16.90;58.32
56514;BME280;62152;52.078;8.414;2023-02-05T16:42:05;102253.47;;;16.89;58.60
56514;BME280;62152;52.078;8.414;2023-02-05T16:46:31;102252.69;;;16.88;58.54
56514;BME280;62152;52.078;8.414;2023-02-05T16:50:37;102260.38;;;16.86;58.53
56514;BME280;62152;52.078;8.414;2023-02-05T16:54:42;102269.41;;;16.87;58.03
56514;BME280;62152;52.078;8.414;2023-02-05T16:58:47;102269.41;;;16.87;57.97
56514;BME280;62152;52.078;8.414;2023-02-05T17:02:53;102275.19;;;16.85;58.16
56514;BME280;62152;52.078;8.414;2023-02-05T17:07:00;102277.13;;;16.85;58.25
56514;BME280;62152;52.078;8.414;2023-02-05T17:11:04;102290.84;;;16.85;57.96
56514;BME280;62152;52.078;8.414;2023-02-05T17:15:33;102289.22;;;16.84;57.99
56514;BME280;62152;52.078;8.414;2023-02-05T17:19:35;102305.66;;;16.84;58.01
56514;BME280;62152;52.078;8.414;2023-02-05T17:23:38;102318.25;;;16.85;58.22
56514;BME280;62152;52.078;8.414;2023-02-05T17:27:38;102310.34;;;16.83;58.08
56514;BME280;62152;52.078;8.414;2023-02-05T17:31:39;102318.03;;;16.81;57.79
56514;BME280;62152;52.078;8.414;2023-02-05T17:35:40;102331.44;;;16.83;57.84
56514;BME280;62152;52.078;8.414;2023-02-05T17:39:43;102329.41;;;16.88;57.91
56514;BME280;62152;52.078;8.414;2023-02-05T17:43:44;102344.59;;;17.08;57.46
56514;BME280;62152;52.078;8.414;2023-02-05T17:47:44;102345.09;;;17.24;56.87
56514;BME280;62152;52.078;8.414;2023-02-05T17:51:45;102355.28;;;17.46;56.16
56514;BME280;62152;52.078;8.414;2023-02-05T17:55:47;102364.50;;;17.64;55.52
56514;BME280;62152;52.078;8.414;2023-02-05T17:59:49;102368.63;;;17.75;55.39
56514;BME280;62152;52.078;8.414;2023-02-05T18:03:50;102350.47;;;17.88;55.29
56514;BME280;62152;52.078;8.414;2023-02-05T18:07:53;102356.22;;;18.00;55.15
56514;BME280;62152;52.078;8.414;2023-02-05T18:11:56;102367.25;;;18.09;54.93
56514;BME280;62152;52.078;8.414;2023-02-05T18:15:57;102370.38;;;18.16;54.50
56514;BME280;62152;52.078;8.414;2023-02-05T18:19:58;102375.53;;;18.17;54.31
56514;BME280;62152;52.078;8.414;2023-02-05T18:23:59;102375.06;;;18.15;54.37
56514;BME280;62152;52.078;8.414;2023-02-05T18:28:01;102383.94;;;18.12;54.31
56514;BME280;62152;52.078;8.414;2023-02-05T18:32:03;102393.22;;;18.02;55.24
56514;BME280;62152;52.078;8.414;2023-02-05T18:36:07;102383.16;;;17.98;55.34
56514;BME280;62152;52.078;8.414;2023-02-05T18:40:10;102382.50;;;17.92;55.46
56514;BME280;62152;52.078;8.414;2023-02-05T18:44:13;102382.94;;;17.86;55.30
56514;BME280;62152;52.078;8.414;2023-02-05T18:48:14;102386.59;;;17.81;55.67
56514;BME280;62152;52.078;8.414;2023-02-05T18:52:14;102382.03;;;17.76;55.76
56514;BME280;62152;52.078;8.414;2023-02-05T18:56:18;102386.53;;;17.72;55.92
56514;BME280;62152;52.078;8.414;2023-02-05T19:00:22;102403.91;;;17.68;56.18
56514;BME280;62152;52.078;8.414;2023-02-05T19:04:23;102413.06;;;17.63;55.71
56514;BME280;62152;52.078;8.414;2023-02-05T19:08:24;102405.78;;;17.59;55.99
56514;BME280;62152;52.078;8.414;2023-02-05T19:12:25;102418.97;;;17.57;55.89
56514;BME280;62152;52.078;8.414;2023-02-05T19:16:29;102420.72;;;17.53;56.30
56514;BME280;62152;52.078;8.414;2023-02-05T19:20:33;102419.69;;;17.48;56.35
56514;BME280;62152;52.078;8.414;2023-02-05T19:24:34;102435.34;;;17.48;56.34
56514;BME280;62152;52.078;8.414;2023-02-05T19:28:36;102437.09;;;17.44;56.46
56514;BME280;62152;52.078;8.414;2023-02-05T19:32:38;102437.38;;;17.42;56.28
56514;BME280;62152;52.078;8.414;2023-02-05T19:36:39;102453.66;;;17.39;56.51
56514;BME280;62152;52.078;8.414;2023-02-05T19:40:40;102454.25;;;17.36;56.61
56514;BME280;62152;52.078;8.414;2023-02-05T19:44:41;102460.06;;;17.34;56.65
56514;BME280;62152;52.078;8.414;2023-02-05T19:48:43;102458.75;;;17.32;56.61
56514;BME280;62152;52.078;8.414;2023-02-05T19:52:44;102471.34;;;17.33;56.67
56514;BME280;62152;52.078;8.414;2023-02-05T19:56:45;102481.28;;;17.29;56.78
56514;BME280;62152;52.078;8.414;2023-02-05T20:00:46;102486.28;;;17.27;56.72
56514;BME280;62152;52.078;8.414;2023-02-05T20:04:48;102488.22;;;17.26;56.96
56514;BME280;62152;52.078;8.414;2023-02-05T20:08:49;102484.66;;;17.26;56.42
56514;BME280;62152;52.078;8.414;2023-02-05T20:12:50;102482.53;;;17.22;57.03
56514;BME280;62152;52.078;8.414;2023-02-05T20:16:52;102486.59;;;17.25;56.56
56514;BME280;62152;52.078;8.414;2023-02-05T20:20:54;102488.03;;;17.22;56.76
56514;BME280;62152;52.078;8.414;2023-02-05T20:24:55;102490.22;;;17.20;56.95
56514;BME280;62152;52.078;8.414;2023-02-05T20:28:56;102490.22;;;17.20;56.73
56514;BME280;62152;52.078;8.414;2023-02-05T20:32:57;102506.19;;;17.18;57.38
56514;BME280;62152;52.078;8.414;2023-02-05T20:37:01;102510.88;;;17.18;56.97
56514;BME280;62152;52.078;8.414;2023-02-05T20:41:11;102511.97;;;17.17;57.22
56514;BME280;62152;52.078;8.414;2023-02-05T20:45:12;102507.91;;;17.14;56.97
56514;BME280;62152;52.078;8.414;2023-02-05T20:49:15;102513.38;;;17.14;57.08
56514;BME280;62152;52.078;8.414;2023-02-05T20:53:17;102499.16;;;17.12;57.02
56514;BME280;62152;52.078;8.414;2023-02-05T20:57:18;102493.69;;;17.12;57.09
56514;BME280;62152;52.078;8.414;2023-02-05T21:01:20;102503.84;;;17.12;56.92
56514;BME280;62152;52.078;8.414;2023-02-05T21:05:23;102512.38;;;17.10;57.11
56514;BME280;62152;52.078;8.414;2023-02-05T21:09:24;102508.28;;;17.08;56.67
56514;BME280;62152;52.078;8.414;2023-02-05T21:13:25;102510.75;;;17.09;57.12
56514;BME280;62152;52.078;8.414;2023-02-05T21:17:26;102517.34;;;17.08;56.79
56514;BME280;62152;52.078;8.414;2023-02-05T21:21:29;102520.91;;;17.09;56.87
56514;BME280;62152;52.078;8.414;2023-02-05T21:25:35;102529.97;;;17.09;57.05
56514;BME280;62152;52.078;8.414;2023-02-05T21:29:36;102526.69;;;17.07;56.76
56514;BME280;62152;52.078;8.414;2023-02-05T21:33:36;102535.22;;;17.06;57.21
56514;BME280;62152;52.078;8.414;2023-02-05T21:37:37;102537.16;;;17.05;56.79